sensor_id;sensor_type;location;lat;lon;timestamp;P1;durP1;ratioP1;P2;durP2;ratioP2
5622;SDS011;2833;50.432;10.706;2023-02-01T00:01:54;4.63;;;3.20;;
5622;SDS011;2833;50.432;10.706;2023-02-01T00:04:23;6.30;;;3.30;;
5622;SDS011;2833;50.432;10.706;2023-02-01T00:06:49;4.07;;;3.67;;
5622;SDS011;2833;50.432;10.706;2023-02-01T00:09:15;4.30;;;3.70;;
5622;SDS011;2833;50.432;10.706;2023-02-01T00:11:41;3.67;;;3.20;;
5622;SDS011;2833;50.432;10.706;2023-02-01T00:14:10;3.80;;;3.20;;
5622;SDS011;2833;50.432;10.706;2023-02-01T00:16:36;6.43;;;3.53;;
5622;SDS011;2833;50.432;10.706;2023-02-01T00:19:20;5.37;;;3.07;;
5622;SDS011;2833;50.432;10.706;2023-02-01T00:21:46;6.83;;;4.27;;
5622;SDS011;2833;50.432;10.706;2023-02-01T00:24:11;4.73;;;3.30;;
5622;SDS011;2833;50.432;10.706;2023-02-01T00:26:38;6.17;;;3.63;;
5622;SDS011;2833;50.432;10.706;2023-02-01T00:29:05;4.77;;;3.57;;
5622;SDS011;2833;50.432;10.706;2023-02-01T00:31:30;3.63;;;3.20;;
5622;SDS011;2833;50.432;10.706;2023-02-01T00:33:56;3.60;;;3.30;;
5622;SDS011;2833;50.432;10.706;2023-02-01T00:36:21;6.80;;;4.40;;
5622;SDS011;2833;50.432;10.706;2023-02-01T00:38:46;4.83;;;3.90;;
5622;SDS011;2833;50.432;10.706;2023-02-01T00:41:18;7.63;;;3.10;;
5622;SDS011;2833;50.432;10.706;2023-02-01T00:43:44;6.30;;;3.70;;
5622;SDS011;2833;50.432;10.706;2023-02-01T00:46:10;6.00;;;3.40;;
5622;SDS011;2833;50.432;10.706;2023-02-01T00:48:35;5.30;;;3.73;;
5622;SDS011;2833;50.432;10.706;2023-02-01T00:51:01;7.20;;;3.53;;
5622;SDS011;2833;50.432;10.706;2023-02-01T00:53:27;4.30;;;3.63;;
5622;SDS011;2833;50.432;10.706;2023-02-01T00:55:52;7.50;;;3.57;;
5622;SDS011;2833;50.432;10.706;2023-02-01T00:58:18;3.80;;;3.23;;
5622;SDS011;2833;50.432;10.706;2023-02-01T01:00:43;5.30;;;3.43;;
5622;SDS011;2833;50.432;10.706;2023-02-01T01:03:08;6.13;;;3.30;;
5622;SDS011;2833;50.432;10.706;2023-02-01T01:05:56;6.30;;;4.00;;
5622;SDS011;2833;50.432;10.706;2023-02-01T01:08:21;7.50;;;2.80;;
5622;SDS011;2833;50.432;10.706;2023-02-01T01:10:46;7.83;;;2.70;;
5622;SDS011;2833;50.432;10.706;2023-02-01T01:13:12;4.07;;;2.47;;
5622;SDS011;2833;50.432;10.706;2023-02-01T01:15:37;4.90;;;2.70;;
5622;SDS011;2833;50.432;10.706;2023-02-01T01:18:03;7.50;;;2.50;;
5622;SDS011;2833;50.432;10.706;2023-02-01T01:20:28;5.13;;;2.37;;
5622;SDS011;2833;50.432;10.706;2023-02-01T01:22:53;8.30;;;2.60;;
5622;SDS011;2833;50.432;10.706;2023-02-01T01:25:19;1.97;;;1.77;;
5622;SDS011;2833;50.432;10.706;2023-02-01T01:27:44;5.40;;;1.73;;
5622;SDS011;2833;50.432;10.706;2023-02-01T01:30:09;4.50;;;2.00;;
5622;SDS011;2833;50.432;10.706;2023-02-01T01:32:34;1.83;;;1.57;;
5622;SDS011;2833;50.432;10.706;2023-02-01T01:35:00;3.77;;;1.50;;
5622;SDS011;2833;50.432;10.706;2023-02-01T01:37:25;1.80;;;1.40;;
5622;SDS011;2833;50.432;10.706;2023-02-01T01:39:50;4.63;;;1.50;;
5622;SDS011;2833;50.432;10.706;2023-02-01T01:42:15;1.90;;;1.67;;
5622;SDS011;2833;50.432;10.706;2023-02-01T01:47:25;2.60;;;1.60;;
5622;SDS011;2833;50.432;10.706;2023-02-01T01:49:51;4.63;;;1.80;;
5622;SDS011;2833;50.432;10.706;2023-02-01T01:52:17;4.83;;;1.60;;
5622;SDS011;2833;50.432;10.706;2023-02-01T01:54:47;5.93;;;1.90;;
5622;SDS011;2833;50.432;10.706;2023-02-01T01:57:32;3.07;;;1.97;;
5622;SDS011;2833;50.432;10.706;2023-02-01T02:00:00;4.43;;;2.17;;
5622;SDS011;2833;50.432;10.706;2023-02-01T02:02:27;9.27;;;2.83;;
5622;SDS011;2833;50.432;10.706;2023-02-01T02:04:52;7.60;;;2.50;;
5622;SDS011;2833;50.432;10.706;2023-02-01T02:07:19;5.80;;;2.80;;
5622;SDS011;2833;50.432;10.706;2023-02-01T02:09:46;8.77;;;2.90;;
5622;SDS011;2833;50.432;10.706;2023-02-01T02:12:11;4.60;;;2.60;;
5622;SDS011;2833;50.432;10.706;2023-02-01T02:14:36;6.30;;;3.10;;
5622;SDS011;2833;50.432;10.706;2023-02-01T02:20:07;7.90;;;2.87;;
5622;SDS011;2833;50.432;10.706;2023-02-01T02:25:29;6.83;;;3.17;;
5622;SDS011;2833;50.432;10.706;2023-02-01T02:38:05;4.40;;;2.30;;
5622;SDS011;2833;50.432;10.706;2023-02-01T02:41:12;5.97;;;2.90;;
5622;SDS011;2833;50.432;10.706;2023-02-01T02:43:43;7.20;;;2.60;;
5622;SDS011;2833;50.432;10.706;2023-02-01T02:46:37;4.17;;;2.23;;
5622;SDS011;2833;50.432;10.706;2023-02-01T02:49:34;3.60;;;2.50;;
5622;SDS011;2833;50.432;10.706;2023-02-01T02:52:02;5.50;;;3.10;;
5622;SDS011;2833;50.432;10.706;2023-02-01T02:54:47;4.60;;;2.60;;
5622;SDS011;2833;50.432;10.706;2023-02-01T02:57:28;5.60;;;2.83;;
5622;SDS011;2833;50.432;10.706;2023-02-01T03:00:14;2.67;;;2.33;;
5622;SDS011;2833;50.432;10.706;2023-02-01T03:02:59;4.17;;;2.70;;
5622;SDS011;2833;50.432;10.706;2023-02-01T03:05:44;4.40;;;3.20;;
5622;SDS011;2833;50.432;10.706;2023-02-01T03:13:02;4.93;;;3.07;;
5622;SDS011;2833;50.432;10.706;2023-02-01T03:17:59;3.90;;;2.40;;
5622;SDS011;2833;50.432;10.706;2023-02-01T03:20:26;6.10;;;3.07;;
5622;SDS011;2833;50.432;10.706;2023-02-01T03:22:52;4.07;;;2.83;;
5622;SDS011;2833;50.432;10.706;2023-02-01T03:25:20;8.03;;;3.27;;
5622;SDS011;2833;50.432;10.706;2023-02-01T03:27:52;3.83;;;3.40;;
5622;SDS011;2833;50.432;10.706;2023-02-01T03:32:44;4.67;;;3.43;;
5622;SDS011;2833;50.432;10.706;2023-02-01T03:38:23;9.00;;;3.57;;
5622;SDS011;2833;50.432;10.706;2023-02-01T03:40:54;4.63;;;3.33;;
5622;SDS011;2833;50.432;10.706;2023-02-01T03:43:20;5.13;;;2.53;;
5622;SDS011;2833;50.432;10.706;2023-02-01T03:45:48;4.30;;;3.40;;
5622;SDS011;2833;50.432;10.706;2023-02-01T03:48:14;3.37;;;2.53;;
5622;SDS011;2833;50.432;10.706;2023-02-01T03:50:43;10.20;;;3.03;;
5622;SDS011;2833;50.432;10.706;2023-02-01T03:53:11;12.50;;;4.20;;
5622;SDS011;2833;50.432;10.706;2023-02-01T03:55:39;7.10;;;3.80;;
5622;SDS011;2833;50.432;10.706;2023-02-01T03:58:12;9.20;;;3.83;;
5622;SDS011;2833;50.432;10.706;2023-02-01T04:00:38;8.63;;;4.40;;
5622;SDS011;2833;50.432;10.706;2023-02-01T04:03:04;10.60;;;3.57;;
5622;SDS011;2833;50.432;10.706;2023-02-01T04:05:30;6.50;;;3.50;;
5622;SDS011;2833;50.432;10.706;2023-02-01T04:07:55;4.60;;;2.87;;
5622;SDS011;2833;50.432;10.706;2023-02-01T04:10:20;3.90;;;3.23;;
5622;SDS011;2833;50.432;10.706;2023-02-01T04:12:45;4.10;;;3.07;;
5622;SDS011;2833;50.432;10.706;2023-02-01T04:15:11;5.30;;;2.80;;
5622;SDS011;2833;50.432;10.706;2023-02-01T04:17:36;8.90;;;3.43;;
5622;SDS011;2833;50.432;10.706;2023-02-01T04:20:01;6.23;;;3.30;;
5622;SDS011;2833;50.432;10.706;2023-02-01T04:22:26;12.90;;;3.70;;
5622;SDS011;2833;50.432;10.706;2023-02-01T04:24:51;4.60;;;3.10;;
5622;SDS011;2833;50.432;10.706;2023-02-01T04:27:17;6.63;;;3.00;;
5622;SDS011;2833;50.432;10.706;2023-02-01T04:29:42;14.00;;;3.57;;
5622;SDS011;2833;50.432;10.706;2023-02-01T04:32:07;5.07;;;3.10;;
5622;SDS011;2833;50.432;10.706;2023-02-01T04:34:33;5.00;;;3.03;;
5622;SDS011;2833;50.432;10.706;2023-02-01T04:36:58;6.53;;;3.53;;
5622;SDS011;2833;50.432;10.706;2023-02-01T04:39:23;3.17;;;2.20;;
5622;SDS011;2833;50.432;10.706;2023-02-01T04:41:48;4.87;;;2.83;;
5622;SDS011;2833;50.432;10.706;2023-02-01T04:44:14;5.60;;;3.20;;
5622;SDS011;2833;50.432;10.706;2023-02-01T04:46:40;6.93;;;2.70;;
5622;SDS011;2833;50.432;10.706;2023-02-01T04:49:05;3.50;;;2.80;;
5622;SDS011;2833;50.432;10.706;2023-02-01T04:51:30;7.07;;;3.00;;
5622;SDS011;2833;50.432;10.706;2023-02-01T04:53:56;9.07;;;3.00;;
5622;SDS011;2833;50.432;10.706;2023-02-01T04:56:21;5.27;;;3.23;;
5622;SDS011;2833;50.432;10.706;2023-02-01T04:58:46;4.47;;;3.20;;
5622;SDS011;2833;50.432;10.706;2023-02-01T05:01:12;4.37;;;2.73;;
5622;SDS011;2833;50.432;10.706;2023-02-01T05:03:37;8.40;;;3.30;;
5622;SDS011;2833;50.432;10.706;2023-02-01T05:06:02;7.30;;;3.67;;
5622;SDS011;2833;50.432;10.706;2023-02-01T05:08:29;9.60;;;3.43;;
5622;SDS011;2833;50.432;10.706;2023-02-01T05:10:55;11.00;;;2.90;;
5622;SDS011;2833;50.432;10.706;2023-02-01T05:13:20;8.53;;;3.07;;
5622;SDS011;2833;50.432;10.706;2023-02-01T05:16:04;5.03;;;3.10;;
5622;SDS011;2833;50.432;10.706;2023-02-01T05:18:29;7.63;;;2.97;;
5622;SDS011;2833;50.432;10.706;2023-02-01T05:20:55;6.70;;;3.53;;
5622;SDS011;2833;50.432;10.706;2023-02-01T05:23:20;12.07;;;3.57;;
5622;SDS011;2833;50.432;10.706;2023-02-01T05:25:45;4.93;;;3.00;;
5622;SDS011;2833;50.432;10.706;2023-02-01T05:28:11;6.17;;;3.40;;
5622;SDS011;2833;50.432;10.706;2023-02-01T05:30:36;6.47;;;3.30;;
5622;SDS011;2833;50.432;10.706;2023-02-01T05:33:02;9.23;;;3.63;;
5622;SDS011;2833;50.432;10.706;2023-02-01T05:35:27;12.63;;;3.00;;
5622;SDS011;2833;50.432;10.706;2023-02-01T05:37:52;8.03;;;3.00;;
5622;SDS011;2833;50.432;10.706;2023-02-01T05:40:17;10.90;;;2.97;;
5622;SDS011;2833;50.432;10.706;2023-02-01T05:42:43;7.53;;;2.80;;
5622;SDS011;2833;50.432;10.706;2023-02-01T05:45:08;14.00;;;3.13;;
5622;SDS011;2833;50.432;10.706;2023-02-01T05:47:33;9.63;;;3.37;;
5622;SDS011;2833;50.432;10.706;2023-02-01T05:49:58;8.40;;;2.80;;
5622;SDS011;2833;50.432;10.706;2023-02-01T05:52:24;4.57;;;2.20;;
5622;SDS011;2833;50.432;10.706;2023-02-01T05:54:49;6.97;;;2.57;;
5622;SDS011;2833;50.432;10.706;2023-02-01T05:57:14;5.57;;;2.70;;
5622;SDS011;2833;50.432;10.706;2023-02-01T05:59:40;11.67;;;3.13;;
5622;SDS011;2833;50.432;10.706;2023-02-01T06:02:09;5.70;;;3.00;;
5622;SDS011;2833;50.432;10.706;2023-02-01T06:04:35;6.90;;;2.53;;
5622;SDS011;2833;50.432;10.706;2023-02-01T06:07:00;8.40;;;2.83;;
5622;SDS011;2833;50.432;10.706;2023-02-01T06:09:25;7.60;;;3.03;;
5622;SDS011;2833;50.432;10.706;2023-02-01T06:11:50;8.57;;;2.73;;
5622;SDS011;2833;50.432;10.706;2023-02-01T06:14:15;4.90;;;2.50;;
5622;SDS011;2833;50.432;10.706;2023-02-01T06:16:41;3.20;;;2.77;;
5622;SDS011;2833;50.432;10.706;2023-02-01T06:19:06;7.40;;;2.67;;
5622;SDS011;2833;50.432;10.706;2023-02-01T06:21:31;4.77;;;2.90;;
5622;SDS011;2833;50.432;10.706;2023-02-01T06:23:56;9.60;;;3.37;;
5622;SDS011;2833;50.432;10.706;2023-02-01T06:26:22;5.20;;;2.50;;
5622;SDS011;2833;50.432;10.706;2023-02-01T06:28:48;7.27;;;2.70;;
5622;SDS011;2833;50.432;10.706;2023-02-01T06:31:13;10.47;;;3.87;;
5622;SDS011;2833;50.432;10.706;2023-02-01T06:33:38;5.13;;;2.80;;
5622;SDS011;2833;50.432;10.706;2023-02-01T06:36:04;5.93;;;2.80;;
5622;SDS011;2833;50.432;10.706;2023-02-01T06:38:30;8.93;;;2.73;;
5622;SDS011;2833;50.432;10.706;2023-02-01T06:40:56;21.47;;;3.60;;
5622;SDS011;2833;50.432;10.706;2023-02-01T06:43:22;6.83;;;3.03;;
5622;SDS011;2833;50.432;10.706;2023-02-01T06:45:47;5.30;;;2.50;;
5622;SDS011;2833;50.432;10.706;2023-02-01T06:48:12;4.77;;;2.53;;
5622;SDS011;2833;50.432;10.706;2023-02-01T06:50:37;10.03;;;3.10;;
5622;SDS011;2833;50.432;10.706;2023-02-01T06:53:03;9.97;;;3.90;;
5622;SDS011;2833;50.432;10.706;2023-02-01T06:55:28;7.07;;;2.90;;
5622;SDS011;2833;50.432;10.706;2023-02-01T06:57:54;7.93;;;2.80;;
5622;SDS011;2833;50.432;10.706;2023-02-01T07:00:19;7.93;;;3.73;;
5622;SDS011;2833;50.432;10.706;2023-02-01T07:02:44;9.67;;;3.00;;
5622;SDS011;2833;50.432;10.706;2023-02-01T07:05:10;15.77;;;3.57;;
5622;SDS011;2833;50.432;10.706;2023-02-01T07:07:35;12.57;;;4.73;;
5622;SDS011;2833;50.432;10.706;2023-02-01T07:10:00;7.70;;;3.10;;
5622;SDS011;2833;50.432;10.706;2023-02-01T07:12:25;9.07;;;3.00;;
5622;SDS011;2833;50.432;10.706;2023-02-01T07:14:50;10.00;;;2.73;;
5622;SDS011;2833;50.432;10.706;2023-02-01T07:17:15;3.93;;;3.23;;
5622;SDS011;2833;50.432;10.706;2023-02-01T07:19:41;8.73;;;2.77;;
5622;SDS011;2833;50.432;10.706;2023-02-01T07:22:06;8.93;;;3.67;;
5622;SDS011;2833;50.432;10.706;2023-02-01T07:24:31;9.60;;;2.80;;
5622;SDS011;2833;50.432;10.706;2023-02-01T07:26:58;9.90;;;3.80;;
5622;SDS011;2833;50.432;10.706;2023-02-01T07:29:23;7.13;;;2.60;;
5622;SDS011;2833;50.432;10.706;2023-02-01T07:31:48;6.00;;;2.30;;
5622;SDS011;2833;50.432;10.706;2023-02-01T07:34:13;9.10;;;3.07;;
5622;SDS011;2833;50.432;10.706;2023-02-01T07:36:39;7.50;;;3.10;;
5622;SDS011;2833;50.432;10.706;2023-02-01T07:39:04;10.17;;;2.60;;
5622;SDS011;2833;50.432;10.706;2023-02-01T07:41:29;9.43;;;2.37;;
5622;SDS011;2833;50.432;10.706;2023-02-01T07:43:54;9.63;;;2.70;;
5622;SDS011;2833;50.432;10.706;2023-02-01T07:46:19;5.63;;;2.73;;
5622;SDS011;2833;50.432;10.706;2023-02-01T07:48:45;8.00;;;3.20;;
5622;SDS011;2833;50.432;10.706;2023-02-01T07:51:11;7.10;;;2.33;;
5622;SDS011;2833;50.432;10.706;2023-02-01T07:53:36;6.67;;;2.53;;
5622;SDS011;2833;50.432;10.706;2023-02-01T07:56:02;9.70;;;3.07;;
5622;SDS011;2833;50.432;10.706;2023-02-01T07:58:27;5.80;;;2.70;;
5622;SDS011;2833;50.432;10.706;2023-02-01T08:00:53;9.13;;;3.87;;
5622;SDS011;2833;50.432;10.706;2023-02-01T08:03:37;9.20;;;2.90;;
5622;SDS011;2833;50.432;10.706;2023-02-01T08:06:02;9.37;;;2.83;;
5622;SDS011;2833;50.432;10.706;2023-02-01T08:08:27;4.70;;;2.30;;
5622;SDS011;2833;50.432;10.706;2023-02-01T08:10:59;6.13;;;2.77;;
5622;SDS011;2833;50.432;10.706;2023-02-01T08:13:24;7.83;;;2.70;;
5622;SDS011;2833;50.432;10.706;2023-02-01T08:15:49;4.67;;;2.37;;
5622;SDS011;2833;50.432;10.706;2023-02-01T08:18:14;6.63;;;3.50;;
5622;SDS011;2833;50.432;10.706;2023-02-01T08:20:42;14.63;;;3.40;;
5622;SDS011;2833;50.432;10.706;2023-02-01T08:23:10;5.83;;;3.03;;
5622;SDS011;2833;50.432;10.706;2023-02-01T08:25:35;8.20;;;2.70;;
5622;SDS011;2833;50.432;10.706;2023-02-01T08:28:01;7.73;;;3.40;;
5622;SDS011;2833;50.432;10.706;2023-02-01T08:30:26;9.23;;;3.67;;
5622;SDS011;2833;50.432;10.706;2023-02-01T08:32:52;15.93;;;4.53;;
5622;SDS011;2833;50.432;10.706;2023-02-01T08:35:17;6.07;;;1.97;;
5622;SDS011;2833;50.432;10.706;2023-02-01T08:37:42;11.30;;;5.23;;
5622;SDS011;2833;50.432;10.706;2023-02-01T08:40:08;4.00;;;2.60;;
5622;SDS011;2833;50.432;10.706;2023-02-01T08:42:33;9.00;;;4.50;;
5622;SDS011;2833;50.432;10.706;2023-02-01T08:45:17;9.63;;;3.60;;
5622;SDS011;2833;50.432;10.706;2023-02-01T08:47:43;39.43;;;11.60;;
5622;SDS011;2833;50.432;10.706;2023-02-01T08:50:09;26.73;;;9.70;;
5622;SDS011;2833;50.432;10.706;2023-02-01T08:52:34;22.63;;;8.87;;
5622;SDS011;2833;50.432;10.706;2023-02-01T08:54:59;13.40;;;4.63;;
5622;SDS011;2833;50.432;10.706;2023-02-01T08:57:25;23.63;;;7.90;;
5622;SDS011;2833;50.432;10.706;2023-02-01T08:59:50;21.03;;;8.00;;
5622;SDS011;2833;50.432;10.706;2023-02-01T09:02:16;10.03;;;3.80;;
5622;SDS011;2833;50.432;10.706;2023-02-01T09:04:41;9.23;;;4.83;;
5622;SDS011;2833;50.432;10.706;2023-02-01T09:07:07;8.70;;;4.60;;
5622;SDS011;2833;50.432;10.706;2023-02-01T09:09:32;10.60;;;4.57;;
5622;SDS011;2833;50.432;10.706;2023-02-01T09:11:57;12.67;;;5.30;;
5622;SDS011;2833;50.432;10.706;2023-02-01T09:14:22;3.60;;;1.90;;
5622;SDS011;2833;50.432;10.706;2023-02-01T09:16:48;10.87;;;3.90;;
5622;SDS011;2833;50.432;10.706;2023-02-01T09:19:13;18.73;;;7.07;;
5622;SDS011;2833;50.432;10.706;2023-02-01T09:21:39;12.03;;;3.07;;
5622;SDS011;2833;50.432;10.706;2023-02-01T09:24:04;17.53;;;4.40;;
5622;SDS011;2833;50.432;10.706;2023-02-01T09:26:29;16.10;;;6.00;;
5622;SDS011;2833;50.432;10.706;2023-02-01T09:28:54;5.60;;;2.50;;
5622;SDS011;2833;50.432;10.706;2023-02-01T09:31:20;8.83;;;3.80;;
5622;SDS011;2833;50.432;10.706;2023-02-01T09:33:45;8.77;;;3.63;;
5622;SDS011;2833;50.432;10.706;2023-02-01T09:36:10;7.60;;;3.87;;
5622;SDS011;2833;50.432;10.706;2023-02-01T09:38:35;6.40;;;3.07;;
5622;SDS011;2833;50.432;10.706;2023-02-01T09:41:01;10.43;;;3.17;;
5622;SDS011;2833;50.432;10.706;2023-02-01T09:43:49;12.87;;;4.43;;
5622;SDS011;2833;50.432;10.706;2023-02-01T09:46:18;30.33;;;10.70;;
5622;SDS011;2833;50.432;10.706;2023-02-01T09:48:45;22.73;;;5.47;;
5622;SDS011;2833;50.432;10.706;2023-02-01T09:51:17;49.73;;;13.80;;
5622;SDS011;2833;50.432;10.706;2023-02-01T09:53:44;34.20;;;11.13;;
5622;SDS011;2833;50.432;10.706;2023-02-01T09:56:21;38.63;;;13.27;;
5622;SDS011;2833;50.432;10.706;2023-02-01T09:58:51;16.20;;;5.63;;
5622;SDS011;2833;50.432;10.706;2023-02-01T10:01:21;19.63;;;6.97;;
5622;SDS011;2833;50.432;10.706;2023-02-01T10:03:47;15.50;;;3.33;;
5622;SDS011;2833;50.432;10.706;2023-02-01T10:06:20;8.60;;;5.23;;
5622;SDS011;2833;50.432;10.706;2023-02-01T10:08:55;8.90;;;4.43;;
5622;SDS011;2833;50.432;10.706;2023-02-01T10:11:27;10.30;;;4.23;;
5622;SDS011;2833;50.432;10.706;2023-02-01T10:13:59;8.20;;;3.40;;
5622;SDS011;2833;50.432;10.706;2023-02-01T10:16:39;17.60;;;4.20;;
5622;SDS011;2833;50.432;10.706;2023-02-01T10:24:24;8.20;;;3.17;;
5622;SDS011;2833;50.432;10.706;2023-02-01T10:26:57;20.60;;;6.13;;
5622;SDS011;2833;50.432;10.706;2023-02-01T10:29:25;19.27;;;5.57;;
5622;SDS011;2833;50.432;10.706;2023-02-01T10:31:51;28.07;;;7.80;;
5622;SDS011;2833;50.432;10.706;2023-02-01T10:34:21;41.30;;;11.73;;
5622;SDS011;2833;50.432;10.706;2023-02-01T10:36:52;41.37;;;12.40;;
5622;SDS011;2833;50.432;10.706;2023-02-01T10:39:18;13.30;;;6.10;;
5622;SDS011;2833;50.432;10.706;2023-02-01T10:41:43;38.17;;;10.63;;
5622;SDS011;2833;50.432;10.706;2023-02-01T10:44:14;22.30;;;7.33;;
5622;SDS011;2833;50.432;10.706;2023-02-01T10:46:40;31.43;;;11.10;;
5622;SDS011;2833;50.432;10.706;2023-02-01T10:49:05;6.20;;;3.10;;
5622;SDS011;2833;50.432;10.706;2023-02-01T10:54:11;13.23;;;4.40;;
5622;SDS011;2833;50.432;10.706;2023-02-01T10:56:39;19.97;;;7.17;;
5622;SDS011;2833;50.432;10.706;2023-02-01T10:59:05;18.50;;;7.40;;
5622;SDS011;2833;50.432;10.706;2023-02-01T11:01:34;28.47;;;10.20;;
5622;SDS011;2833;50.432;10.706;2023-02-01T11:04:00;11.63;;;5.70;;
5622;SDS011;2833;50.432;10.706;2023-02-01T11:06:27;28.37;;;10.47;;
5622;SDS011;2833;50.432;10.706;2023-02-01T11:08:54;12.80;;;5.90;;
5622;SDS011;2833;50.432;10.706;2023-02-01T11:11:20;40.90;;;13.60;;
5622;SDS011;2833;50.432;10.706;2023-02-01T11:13:50;9.73;;;3.70;;
5622;SDS011;2833;50.432;10.706;2023-02-01T11:16:18;11.27;;;4.07;;
5622;SDS011;2833;50.432;10.706;2023-02-01T11:18:43;33.87;;;10.97;;
5622;SDS011;2833;50.432;10.706;2023-02-01T11:21:09;9.33;;;4.10;;
5622;SDS011;2833;50.432;10.706;2023-02-01T11:23:39;10.97;;;5.67;;
5622;SDS011;2833;50.432;10.706;2023-02-01T11:26:12;14.77;;;6.67;;
5622;SDS011;2833;50.432;10.706;2023-02-01T11:28:39;17.17;;;6.90;;
5622;SDS011;2833;50.432;10.706;2023-02-01T11:31:08;13.37;;;6.20;;
5622;SDS011;2833;50.432;10.706;2023-02-01T11:33:35;8.80;;;5.33;;
5622;SDS011;2833;50.432;10.706;2023-02-01T11:36:07;31.80;;;15.20;;
5622;SDS011;2833;50.432;10.706;2023-02-01T11:38:34;24.13;;;10.47;;
5622;SDS011;2833;50.432;10.706;2023-02-01T11:41:20;17.40;;;7.50;;
5622;SDS011;2833;50.432;10.706;2023-02-01T11:43:53;12.10;;;3.67;;
5622;SDS011;2833;50.432;10.706;2023-02-01T11:46:19;17.17;;;8.80;;
5622;SDS011;2833;50.432;10.706;2023-02-01T11:48:50;12.57;;;5.77;;
5622;SDS011;2833;50.432;10.706;2023-02-01T11:51:24;14.33;;;4.13;;
5622;SDS011;2833;50.432;10.706;2023-02-01T11:56:36;7.37;;;2.63;;
5622;SDS011;2833;50.432;10.706;2023-02-01T11:59:23;12.73;;;6.50;;
5622;SDS011;2833;50.432;10.706;2023-02-01T12:01:56;6.77;;;3.50;;
5622;SDS011;2833;50.432;10.706;2023-02-01T12:06:53;10.77;;;4.33;;
5622;SDS011;2833;50.432;10.706;2023-02-01T12:09:38;26.43;;;14.40;;
5622;SDS011;2833;50.432;10.706;2023-02-01T12:12:13;34.90;;;15.23;;
5622;SDS011;2833;50.432;10.706;2023-02-01T12:22:56;71.60;;;26.37;;
5622;SDS011;2833;50.432;10.706;2023-02-01T12:25:29;75.00;;;23.50;;
5622;SDS011;2833;50.432;10.706;2023-02-01T12:38:11;14.40;;;5.93;;
5622;SDS011;2833;50.432;10.706;2023-02-01T12:43:35;38.43;;;16.17;;
5622;SDS011;2833;50.432;10.706;2023-02-01T12:46:02;7.30;;;4.37;;
5622;SDS011;2833;50.432;10.706;2023-02-01T12:50:54;13.13;;;5.47;;
5622;SDS011;2833;50.432;10.706;2023-02-01T12:55:47;13.30;;;7.53;;
5622;SDS011;2833;50.432;10.706;2023-02-01T12:58:26;9.87;;;5.33;;
5622;SDS011;2833;50.432;10.706;2023-02-01T13:00:54;8.43;;;4.87;;
5622;SDS011;2833;50.432;10.706;2023-02-01T13:03:38;8.00;;;4.03;;
5622;SDS011;2833;50.432;10.706;2023-02-01T13:06:12;18.83;;;6.63;;
5622;SDS011;2833;50.432;10.706;2023-02-01T13:09:21;9.70;;;4.60;;
5622;SDS011;2833;50.432;10.706;2023-02-01T13:12:02;12.20;;;4.30;;
5622;SDS011;2833;50.432;10.706;2023-02-01T13:17:04;8.20;;;2.50;;
5622;SDS011;2833;50.432;10.706;2023-02-01T13:22:11;45.27;;;12.53;;
5622;SDS011;2833;50.432;10.706;2023-02-01T13:24:54;30.40;;;12.00;;
5622;SDS011;2833;50.432;10.706;2023-02-01T13:27:21;13.30;;;5.37;;
5622;SDS011;2833;50.432;10.706;2023-02-01T13:29:59;20.13;;;9.07;;
5622;SDS011;2833;50.432;10.706;2023-02-01T13:34:57;9.97;;;5.07;;
5622;SDS011;2833;50.432;10.706;2023-02-01T13:45:13;15.02;;;5.32;;
5622;SDS011;2833;50.432;10.706;2023-02-01T13:47:43;21.07;;;8.43;;
5622;SDS011;2833;50.432;10.706;2023-02-01T13:50:19;8.60;;;4.77;;
5622;SDS011;2833;50.432;10.706;2023-02-01T13:52:50;4.60;;;3.63;;
5622;SDS011;2833;50.432;10.706;2023-02-01T13:57:44;4.60;;;2.90;;
5622;SDS011;2833;50.432;10.706;2023-02-01T14:00:27;13.70;;;4.10;;
5622;SDS011;2833;50.432;10.706;2023-02-01T14:23:42;32.93;;;9.03;;
5622;SDS011;2833;50.432;10.706;2023-02-01T14:26:09;11.57;;;3.70;;
5622;SDS011;2833;50.432;10.706;2023-02-01T14:28:36;12.70;;;3.17;;
5622;SDS011;2833;50.432;10.706;2023-02-01T14:31:13;20.20;;;6.87;;
5622;SDS011;2833;50.432;10.706;2023-02-01T14:33:40;7.30;;;3.53;;
5622;SDS011;2833;50.432;10.706;2023-02-01T14:36:07;9.00;;;5.40;;
5622;SDS011;2833;50.432;10.706;2023-02-01T14:38:34;7.60;;;3.50;;
5622;SDS011;2833;50.432;10.706;2023-02-01T14:41:14;17.03;;;6.60;;
5622;SDS011;2833;50.432;10.706;2023-02-01T14:49:20;13.03;;;5.50;;
5622;SDS011;2833;50.432;10.706;2023-02-01T14:51:45;12.83;;;5.17;;
5622;SDS011;2833;50.432;10.706;2023-02-01T14:54:11;9.97;;;3.70;;
5622;SDS011;2833;50.432;10.706;2023-02-01T14:56:37;8.13;;;3.40;;
5622;SDS011;2833;50.432;10.706;2023-02-01T14:59:07;16.67;;;7.60;;
5622;SDS011;2833;50.432;10.706;2023-02-01T15:01:35;33.67;;;15.90;;
5622;SDS011;2833;50.432;10.706;2023-02-01T15:04:12;11.23;;;5.40;;
5622;SDS011;2833;50.432;10.706;2023-02-01T15:06:41;7.47;;;2.83;;
5622;SDS011;2833;50.432;10.706;2023-02-01T15:11:53;8.90;;;2.90;;
5622;SDS011;2833;50.432;10.706;2023-02-01T15:14:19;8.47;;;2.73;;
5622;SDS011;2833;50.432;10.706;2023-02-01T15:16:44;7.13;;;3.00;;
5622;SDS011;2833;50.432;10.706;2023-02-01T15:19:14;6.30;;;3.03;;
5622;SDS011;2833;50.432;10.706;2023-02-01T15:21:44;5.53;;;2.33;;
5622;SDS011;2833;50.432;10.706;2023-02-01T15:24:11;5.40;;;2.57;;
5622;SDS011;2833;50.432;10.706;2023-02-01T15:26:37;5.63;;;2.70;;
5622;SDS011;2833;50.432;10.706;2023-02-01T15:29:02;8.63;;;3.40;;
5622;SDS011;2833;50.432;10.706;2023-02-01T15:31:35;9.03;;;4.40;;
5622;SDS011;2833;50.432;10.706;2023-02-01T15:34:00;9.10;;;2.40;;
5622;SDS011;2833;50.432;10.706;2023-02-01T15:36:25;16.37;;;7.97;;
5622;SDS011;2833;50.432;10.706;2023-02-01T15:41:37;10.63;;;4.40;;
5622;SDS011;2833;50.432;10.706;2023-02-01T15:44:28;16.63;;;7.63;;
5622;SDS011;2833;50.432;10.706;2023-02-01T15:46:49;21.37;;;8.03;;
5622;SDS011;2833;50.432;10.706;2023-02-01T15:49:23;6.17;;;2.90;;
5622;SDS011;2833;50.432;10.706;2023-02-01T15:51:49;7.37;;;3.33;;
5622;SDS011;2833;50.432;10.706;2023-02-01T15:54:16;10.60;;;4.87;;
5622;SDS011;2833;50.432;10.706;2023-02-01T15:56:44;6.83;;;3.10;;
5622;SDS011;2833;50.432;10.706;2023-02-01T15:59:17;9.37;;;3.20;;
5622;SDS011;2833;50.432;10.706;2023-02-01T16:01:42;4.93;;;2.87;;
5622;SDS011;2833;50.432;10.706;2023-02-01T16:04:22;5.07;;;2.27;;
5622;SDS011;2833;50.432;10.706;2023-02-01T16:06:54;6.20;;;2.97;;
5622;SDS011;2833;50.432;10.706;2023-02-01T16:09:21;6.90;;;2.47;;
5622;SDS011;2833;50.432;10.706;2023-02-01T16:11:48;17.33;;;4.47;;
5622;SDS011;2833;50.432;10.706;2023-02-01T16:14:13;13.53;;;3.60;;
5622;SDS011;2833;50.432;10.706;2023-02-01T16:16:39;3.63;;;2.20;;
5622;SDS011;2833;50.432;10.706;2023-02-01T16:19:04;11.37;;;4.33;;
5622;SDS011;2833;50.432;10.706;2023-02-01T16:21:29;32.13;;;14.20;;
5622;SDS011;2833;50.432;10.706;2023-02-01T16:23:54;39.97;;;19.70;;
5622;SDS011;2833;50.432;10.706;2023-02-01T16:26:20;35.83;;;13.37;;
5622;SDS011;2833;50.432;10.706;2023-02-01T16:28:45;15.30;;;6.97;;
5622;SDS011;2833;50.432;10.706;2023-02-01T16:31:14;16.43;;;6.23;;
5622;SDS011;2833;50.432;10.706;2023-02-01T16:33:46;10.20;;;5.00;;
5622;SDS011;2833;50.432;10.706;2023-02-01T16:36:13;16.23;;;6.17;;
5622;SDS011;2833;50.432;10.706;2023-02-01T16:38:39;21.40;;;7.77;;
5622;SDS011;2833;50.432;10.706;2023-02-01T16:41:04;6.50;;;2.40;;
5622;SDS011;2833;50.432;10.706;2023-02-01T16:43:30;10.67;;;3.93;;
5622;SDS011;2833;50.432;10.706;2023-02-01T16:45:55;10.50;;;4.40;;
5622;SDS011;2833;50.432;10.706;2023-02-01T16:48:27;13.40;;;5.13;;
5622;SDS011;2833;50.432;10.706;2023-02-01T16:50:54;11.40;;;3.23;;
5622;SDS011;2833;50.432;10.706;2023-02-01T16:53:20;13.93;;;3.30;;
5622;SDS011;2833;50.432;10.706;2023-02-01T16:55:45;3.57;;;2.80;;
5622;SDS011;2833;50.432;10.706;2023-02-01T16:58:12;5.90;;;3.23;;
5622;SDS011;2833;50.432;10.706;2023-02-01T17:00:38;9.50;;;2.90;;
5622;SDS011;2833;50.432;10.706;2023-02-01T17:03:03;11.30;;;6.60;;